Milburn, KY (42070)

4:46 PM CST on December 18, 2014 (GMT -0600)
Eastern Hickman County | Change Station
CLOSE
Current Station
Personal Weather Station
Location: Wingo, KY
Elevation: 466 ft
Nearby Weather Stations

Elev 466 ft 36.63 °N, 88.83 °W | Updated 13 minutes ago

Overcast
Overcast
36.9 °F
Feels Like 32 °F
N
5.8
Wind Variable Wind from ESE

Today
High -- | Low -- °F
--% Chance of Precip.
Yesterday
High -- | Low -- °F
Precip. -- in
7:02 AM 4:41 PM
Waning Crescent, 12% visible
Pressure 30.23 in
Visibility 10.0 miles
Clouds Overcast 4500 ft
Windchill 32 °F
Dew Point 35 °F
Humidity 92%
Rainfall 0.00 in
Snow Depth Not available.
UV 0 out of 12
Pollen .50 out of 12
Air Quality Not available.
Flu Activity Not available.
METAR KM25 182255Z AUTO 00000KT 10SM OVC045 02/00 A3023 RMK AO2

More Conditions Fewer Conditions

Pressure 30.23 in
Visibility 10.0 miles
Clouds Overcast 4500 ft
Windchill 32 °F
Dew Point 35 °F
Humidity 92%
Rainfall 0.00 in
Snow Depth Not available.
UV 0 out of 12
Pollen .50 out of 12
Air Quality Not available.
Flu Activity Not available.
METAR KM25 182255Z AUTO 00000KT 10SM OVC045 02/00 A3023 RMK AO2

More Conditions Fewer Conditions

10-Day Weather Forecast

Almanac

Astronomy

Dec. 18, 2014 Rise Set
Actual Time
Civil Twilight
Nautical Twilight
Astronomical Twilight
Moon
Length of Visible Light
Length of Day
Tomorrow will be .
, % of the Moon is Illuminated

Today's Extremes

State Highs State Lows

Community

WunderPhotos

Upload Photos

1,779,010 photos uploaded!

WunderBlogs® & News

Nearby

Air Quality

  Air Quality AQ Index Pollutant
Not available.

Snow Depth

Station Depth Elevation

Earthquake Activity

City Distance Mag. Time & Date
Minimum magnitude displayed is 2.5.

Coastal Water Temperatures

Place Temperature

Nearby Weather Stations